TN29 weather

67 Madison Ave Partnership Ltd Heliport
Memphis, Tennessee, United States

Public forecast

Using degrees Fahrenheit for public forecast. Weather courtesy of forecast.io.

Closest aviation weather report (METAR) to 67 Madison Ave Partnership Ltd Heliport

Closest report is Memphis International Airport, 6.9 nm (12.7 km) SE. Retrieved 2019/10/16 03:54 UTC (10 minutes ago):

KMEM 160354Z 23005KT 10SM BKN006 OVC011 20/19 A2989 RMK AO2 SLP117 T02000194

Closest aviation forecast (TAF) to 67 Madison Ave Partnership Ltd Heliport

Closest forecast is Memphis International Airport, 6.9 nm (12.7 km) SE. Retrieved 2019-10-16 04:00 UTC (4 minutes ago):

TAF COR KMEM 160359Z 1604/1706 21006KT P6SM VCSH SCT006 OVC011 TEMPO 1604/1605 BKN006 FM160500 35012G20KT P6SM VCSH BKN025 BKN050 FM161200 36012KT P6SM SKC FM162100 33007KT P6SM SKC